sensor_id;sensor_type;location;lat;lon;timestamp;pressure;altitude;pressure_sealevel;temperature;humidity
28911;BME280;16028;42.642;23.310;2023-03-21T00:01:02;93839.97;;;10.81;65.01
28911;BME280;16028;42.642;23.310;2023-03-21T00:03:29;93841.88;;;10.79;63.53
28911;BME280;16028;42.642;23.310;2023-03-21T00:05:55;93839.97;;;10.81;64.29
28911;BME280;16028;42.642;23.310;2023-03-21T00:08:23;93838.69;;;10.85;64.82
28911;BME280;16028;42.642;23.310;2023-03-21T00:10:54;93835.09;;;10.86;64.67
28911;BME280;16028;42.642;23.310;2023-03-21T00:13:20;93832.69;;;10.84;64.54
28911;BME280;16028;42.642;23.310;2023-03-21T00:15:48;93837.91;;;10.92;62.94
28911;BME280;16028;42.642;23.310;2023-03-21T00:18:19;93833.88;;;10.98;62.04
28911;BME280;16028;42.642;23.310;2023-03-21T00:20:54;93836.34;;;10.99;61.46
28911;BME280;16028;42.642;23.310;2023-03-21T00:23:22;93832.41;;;10.95;61.26
28911;BME280;16028;42.642;23.310;2023-03-21T00:25:49;93831.94;;;11.00;61.72
28911;BME280;16028;42.642;23.310;2023-03-21T00:28:15;93834.69;;;10.98;62.31
28911;BME280;16028;42.642;23.310;2023-03-21T00:30:42;93836.47;;;10.98;62.18
28911;BME280;16028;42.642;23.310;2023-03-21T00:33:10;93838.44;;;10.96;62.60
28911;BME280;16028;42.642;23.310;2023-03-21T00:35:38;93842.81;;;10.95;62.67
28911;BME280;16028;42.642;23.310;2023-03-21T00:38:07;93843.63;;;10.96;63.75
28911;BME280;16028;42.642;23.310;2023-03-21T00:40:34;93836.75;;;10.87;65.30
28911;BME280;16028;42.642;23.310;2023-03-21T00:43:01;93837.19;;;10.82;65.61
28911;BME280;16028;42.642;23.310;2023-03-21T00:45:27;93836.03;;;10.77;65.67
28911;BME280;16028;42.642;23.310;2023-03-21T00:47:54;93837.97;;;10.75;66.05
28911;BME280;16028;42.642;23.310;2023-03-21T00:50:22;93837.91;;;10.67;67.01
28911;BME280;16028;42.642;23.310;2023-03-21T00:52:48;93839.66;;;10.58;67.52
28911;BME280;16028;42.642;23.310;2023-03-21T00:55:15;93830.97;;;10.49;67.93
28911;BME280;16028;42.642;23.310;2023-03-21T00:57:43;93829.94;;;10.42;68.14
28911;BME280;16028;42.642;23.310;2023-03-21T01:00:10;93829.94;;;10.42;69.02
28911;BME280;16028;42.642;23.310;2023-03-21T01:02:38;93825.28;;;10.28;70.00
28911;BME280;16028;42.642;23.310;2023-03-21T01:05:23;93824.75;;;10.25;69.81
28911;BME280;16028;42.642;23.310;2023-03-21T01:08:04;93827.00;;;10.20;69.47
28911;BME280;16028;42.642;23.310;2023-03-21T01:10:30;93828.25;;;10.16;69.80
28911;BME280;16028;42.642;23.310;2023-03-21T01:12:57;93826.75;;;10.13;70.04
28911;BME280;16028;42.642;23.310;2023-03-21T01:15:23;93821.50;;;10.05;70.08
28911;BME280;16028;42.642;23.310;2023-03-21T01:17:50;93823.88;;;9.98;70.43
28911;BME280;16028;42.642;23.310;2023-03-21T01:20:16;93819.91;;;9.94;70.46
28911;BME280;16028;42.642;23.310;2023-03-21T01:22:44;93818.97;;;9.95;70.57
28911;BME280;16028;42.642;23.310;2023-03-21T01:25:11;93814.81;;;9.85;72.36
28911;BME280;16028;42.642;23.310;2023-03-21T01:27:37;93821.03;;;9.74;71.84
28911;BME280;16028;42.642;23.310;2023-03-21T01:30:04;93816.00;;;9.73;71.53
28911;BME280;16028;42.642;23.310;2023-03-21T01:32:31;93821.97;;;9.73;71.33
28911;BME280;16028;42.642;23.310;2023-03-21T01:34:58;93829.50;;;9.76;71.05
28911;BME280;16028;42.642;23.310;2023-03-21T01:37:24;93827.16;;;9.73;70.89
28911;BME280;16028;42.642;23.310;2023-03-21T01:39:52;93820.06;;;9.75;71.00
28911;BME280;16028;42.642;23.310;2023-03-21T01:42:19;93822.66;;;9.75;71.09
28911;BME280;16028;42.642;23.310;2023-03-21T01:44:52;93822.78;;;9.74;70.90
28911;BME280;16028;42.642;23.310;2023-03-21T01:47:20;93826.75;;;9.78;70.74
28911;BME280;16028;42.642;23.310;2023-03-21T01:49:48;93829.09;;;9.71;70.69
28911;BME280;16028;42.642;23.310;2023-03-21T01:52:16;93830.34;;;9.67;71.22
28911;BME280;16028;42.642;23.310;2023-03-21T01:54:43;93822.72;;;9.66;71.01
28911;BME280;16028;42.642;23.310;2023-03-21T01:57:12;93817.06;;;9.70;71.36
28911;BME280;16028;42.642;23.310;2023-03-21T01:59:42;93817.91;;;9.71;71.04
28911;BME280;16028;42.642;23.310;2023-03-21T02:02:10;93813.47;;;9.63;71.37
28911;BME280;16028;42.642;23.310;2023-03-21T02:04:38;93814.69;;;9.59;71.40
28911;BME280;16028;42.642;23.310;2023-03-21T02:07:06;93818.72;;;9.53;71.62
28911;BME280;16028;42.642;23.310;2023-03-21T02:09:34;93817.06;;;9.52;72.15
28911;BME280;16028;42.642;23.310;2023-03-21T02:12:04;93812.28;;;9.48;72.13
28911;BME280;16028;42.642;23.310;2023-03-21T02:14:32;93804.97;;;9.43;72.66
28911;BME280;16028;42.642;23.310;2023-03-21T02:17:02;93810.88;;;9.36;72.98
28911;BME280;16028;42.642;23.310;2023-03-21T02:22:28;93803.47;;;9.41;71.78
28911;BME280;16028;42.642;23.310;2023-03-21T02:27:45;93797.59;;;9.39;71.93
28911;BME280;16028;42.642;23.310;2023-03-21T02:30:32;93797.75;;;9.37;71.61
28911;BME280;16028;42.642;23.310;2023-03-21T02:33:29;93795.53;;;9.42;71.62
28911;BME280;16028;42.642;23.310;2023-03-21T02:36:04;93801.03;;;9.39;70.21
28911;BME280;16028;42.642;23.310;2023-03-21T02:38:36;93797.06;;;9.35;70.36
28911;BME280;16028;42.642;23.310;2023-03-21T02:41:05;93799.38;;;9.38;70.46
28911;BME280;16028;42.642;23.310;2023-03-21T02:43:35;93802.25;;;9.35;70.35
28911;BME280;16028;42.642;23.310;2023-03-21T02:46:05;93796.28;;;9.35;71.04
28911;BME280;16028;42.642;23.310;2023-03-21T02:48:34;93785.59;;;9.38;70.66
28911;BME280;16028;42.642;23.310;2023-03-21T02:51:01;93793.22;;;9.39;70.66
28911;BME280;16028;42.642;23.310;2023-03-21T02:53:30;93790.78;;;9.38;70.63
28911;BME280;16028;42.642;23.310;2023-03-21T02:56:00;93787.81;;;9.33;70.15
28911;BME280;16028;42.642;23.310;2023-03-21T02:58:27;93791.88;;;9.35;71.00
28911;BME280;16028;42.642;23.310;2023-03-21T03:00:54;93785.19;;;9.15;71.95
28911;BME280;16028;42.642;23.310;2023-03-21T03:03:20;93792.03;;;9.07;71.55
28911;BME280;16028;42.642;23.310;2023-03-21T03:05:48;93794.84;;;8.95;72.08
28911;BME280;16028;42.642;23.310;2023-03-21T03:08:25;93800.59;;;8.89;72.19
28911;BME280;16028;42.642;23.310;2023-03-21T03:10:55;93804.00;;;8.90;72.59
28911;BME280;16028;42.642;23.310;2023-03-21T03:13:34;93800.44;;;8.91;72.38
28911;BME280;16028;42.642;23.310;2023-03-21T03:16:03;93798.81;;;8.90;73.15
28911;BME280;16028;42.642;23.310;2023-03-21T03:18:37;93802.25;;;8.81;73.61
28911;BME280;16028;42.642;23.310;2023-03-21T03:21:07;93803.75;;;8.83;72.23
28911;BME280;16028;42.642;23.310;2023-03-21T03:23:38;93808.81;;;8.75;73.72
28911;BME280;16028;42.642;23.310;2023-03-21T03:26:08;93810.59;;;8.75;73.07
28911;BME280;16028;42.642;23.310;2023-03-21T03:28:38;93810.06;;;8.71;73.24
28911;BME280;16028;42.642;23.310;2023-03-21T03:31:05;93806.94;;;8.68;73.45
28911;BME280;16028;42.642;23.310;2023-03-21T03:33:32;93805.97;;;8.69;74.09
28911;BME280;16028;42.642;23.310;2023-03-21T03:36:02;93810.63;;;8.65;74.53
28911;BME280;16028;42.642;23.310;2023-03-21T03:38:29;93815.16;;;8.54;74.73
28911;BME280;16028;42.642;23.310;2023-03-21T03:40:57;93810.00;;;8.44;74.84
28911;BME280;16028;42.642;23.310;2023-03-21T03:43:28;93809.34;;;8.42;75.01
28911;BME280;16028;42.642;23.310;2023-03-21T03:46:01;93808.06;;;8.46;74.30
28911;BME280;16028;42.642;23.310;2023-03-21T03:48:31;93816.41;;;8.49;74.50
28911;BME280;16028;42.642;23.310;2023-03-21T03:50:59;93813.53;;;8.52;73.91
28911;BME280;16028;42.642;23.310;2023-03-21T03:53:29;93814.22;;;8.55;74.10
28911;BME280;16028;42.642;23.310;2023-03-21T03:56:01;93804.66;;;8.55;73.46
28911;BME280;16028;42.642;23.310;2023-03-21T03:58:28;93798.63;;;8.64;74.03
28911;BME280;16028;42.642;23.310;2023-03-21T04:00:55;93802.75;;;8.57;73.96
28911;BME280;16028;42.642;23.310;2023-03-21T04:03:23;93795.91;;;8.56;74.16
28911;BME280;16028;42.642;23.310;2023-03-21T04:05:50;93798.38;;;8.58;74.40
28911;BME280;16028;42.642;23.310;2023-03-21T04:08:16;93792.38;;;8.57;74.24
28911;BME280;16028;42.642;23.310;2023-03-21T04:10:43;93799.03;;;8.60;75.05
28911;BME280;16028;42.642;23.310;2023-03-21T04:13:09;93790.72;;;8.56;75.27
28911;BME280;16028;42.642;23.310;2023-03-21T04:15:36;93802.88;;;8.56;75.15
28911;BME280;16028;42.642;23.310;2023-03-21T04:18:03;93787.06;;;8.49;74.92
28911;BME280;16028;42.642;23.310;2023-03-21T04:20:30;93794.16;;;8.47;75.62
28911;BME280;16028;42.642;23.310;2023-03-21T04:22:57;93788.31;;;8.45;75.81
28911;BME280;16028;42.642;23.310;2023-03-21T04:25:23;93791.59;;;8.47;76.15
28911;BME280;16028;42.642;23.310;2023-03-21T04:27:52;93788.16;;;8.46;75.67
28911;BME280;16028;42.642;23.310;2023-03-21T04:30:20;93786.41;;;8.47;75.32
28911;BME280;16028;42.642;23.310;2023-03-21T04:32:48;93784.63;;;8.47;76.06
28911;BME280;16028;42.642;23.310;2023-03-21T04:35:18;93791.75;;;8.45;76.78
28911;BME280;16028;42.642;23.310;2023-03-21T04:37:46;93790.94;;;8.35;77.04
28911;BME280;16028;42.642;23.310;2023-03-21T04:40:13;93797.06;;;8.34;76.70
28911;BME280;16028;42.642;23.310;2023-03-21T04:42:42;93800.75;;;8.32;77.57
28911;BME280;16028;42.642;23.310;2023-03-21T04:45:09;93800.75;;;8.32;77.11
28911;BME280;16028;42.642;23.310;2023-03-21T04:47:36;93801.97;;;8.37;76.88
28911;BME280;16028;42.642;23.310;2023-03-21T04:50:04;93799.91;;;8.41;76.63
28911;BME280;16028;42.642;23.310;2023-03-21T04:52:31;93793.78;;;8.42;77.02
28911;BME280;16028;42.642;23.310;2023-03-21T04:54:58;93799.75;;;8.42;77.16
28911;BME280;16028;42.642;23.310;2023-03-21T04:57:26;93793.22;;;8.48;76.64
28911;BME280;16028;42.642;23.310;2023-03-21T04:59:52;93799.63;;;8.44;76.91
28911;BME280;16028;42.642;23.310;2023-03-21T05:02:19;93804.81;;;8.44;77.50
28911;BME280;16028;42.642;23.310;2023-03-21T05:04:45;93805.47;;;8.46;77.18
28911;BME280;16028;42.642;23.310;2023-03-21T05:07:12;93804.53;;;8.47;77.95
28911;BME280;16028;42.642;23.310;2023-03-21T05:09:38;93804.66;;;8.55;77.40
28911;BME280;16028;42.642;23.310;2023-03-21T05:12:06;93800.69;;;8.61;77.72
28911;BME280;16028;42.642;23.310;2023-03-21T05:14:32;93811.06;;;8.61;77.99
28911;BME280;16028;42.642;23.310;2023-03-21T05:16:59;93812.25;;;8.66;78.18
28911;BME280;16028;42.642;23.310;2023-03-21T05:19:29;93809.38;;;8.69;77.25
28911;BME280;16028;42.642;23.310;2023-03-21T05:21:59;93816.75;;;8.74;77.80
28911;BME280;16028;42.642;23.310;2023-03-21T05:24:28;93815.66;;;8.76;77.36
28911;BME280;16028;42.642;23.310;2023-03-21T05:26:55;93818.09;;;8.78;77.05
28911;BME280;16028;42.642;23.310;2023-03-21T05:29:27;93816.03;;;8.81;77.08
28911;BME280;16028;42.642;23.310;2023-03-21T05:31:56;93816.56;;;8.85;77.41
28911;BME280;16028;42.642;23.310;2023-03-21T05:34:23;93815.34;;;8.89;77.93
28911;BME280;16028;42.642;23.310;2023-03-21T05:36:51;93820.78;;;8.95;77.94
28911;BME280;16028;42.642;23.310;2023-03-21T05:39:18;93821.16;;;9.00;77.29
28911;BME280;16028;42.642;23.310;2023-03-21T05:41:44;93823.03;;;9.08;77.59
28911;BME280;16028;42.642;23.310;2023-03-21T05:44:11;93811.13;;;9.15;77.49
28911;BME280;16028;42.642;23.310;2023-03-21T05:46:38;93811.38;;;9.22;77.30
28911;BME280;16028;42.642;23.310;2023-03-21T05:49:05;93809.81;;;9.29;78.05
28911;BME280;16028;42.642;23.310;2023-03-21T05:51:31;93802.44;;;9.34;78.36
28911;BME280;16028;42.642;23.310;2023-03-21T05:53:58;93798.28;;;9.41;78.31
28911;BME280;16028;42.642;23.310;2023-03-21T05:56:24;93788.13;;;9.47;78.34
28911;BME280;16028;42.642;23.310;2023-03-21T05:58:51;93790.16;;;9.53;77.97
28911;BME280;16028;42.642;23.310;2023-03-21T06:01:17;93791.16;;;9.61;78.72
28911;BME280;16028;42.642;23.310;2023-03-21T06:03:45;93790.59;;;9.67;79.23
28911;BME280;16028;42.642;23.310;2023-03-21T06:06:12;93789.03;;;9.74;80.09
28911;BME280;16028;42.642;23.310;2023-03-21T06:08:38;93784.06;;;9.80;80.64
28911;BME280;16028;42.642;23.310;2023-03-21T06:11:05;93785.75;;;9.89;80.54
28911;BME280;16028;42.642;23.310;2023-03-21T06:13:34;93783.25;;;9.97;80.27
28911;BME280;16028;42.642;23.310;2023-03-21T06:16:00;93774.91;;;10.11;78.32
28911;BME280;16028;42.642;23.310;2023-03-21T06:18:27;93774.84;;;10.21;77.82
28911;BME280;16028;42.642;23.310;2023-03-21T06:20:55;93776.25;;;10.33;77.90
28911;BME280;16028;42.642;23.310;2023-03-21T06:23:21;93773.56;;;10.43;76.90
28911;BME280;16028;42.642;23.310;2023-03-21T06:25:48;93764.16;;;10.50;76.48
28911;BME280;16028;42.642;23.310;2023-03-21T06:28:15;93760.88;;;10.66;75.84
28911;BME280;16028;42.642;23.310;2023-03-21T06:30:41;93772.13;;;10.74;73.58
28911;BME280;16028;42.642;23.310;2023-03-21T06:33:08;93762.56;;;10.83;74.13
28911;BME280;16028;42.642;23.310;2023-03-21T06:35:34;93765.41;;;10.97;73.59
28911;BME280;16028;42.642;23.310;2023-03-21T06:38:02;93768.88;;;11.14;70.81
28911;BME280;16028;42.642;23.310;2023-03-21T06:40:29;93775.47;;;11.34;68.32
28911;BME280;16028;42.642;23.310;2023-03-21T06:42:55;93777.63;;;11.47;67.23
28911;BME280;16028;42.642;23.310;2023-03-21T06:45:22;93778.97;;;11.59;65.70
28911;BME280;16028;42.642;23.310;2023-03-21T06:47:49;93772.50;;;11.71;63.70
28911;BME280;16028;42.642;23.310;2023-03-21T06:50:16;93782.13;;;11.79;64.03
28911;BME280;16028;42.642;23.310;2023-03-21T06:52:43;93781.81;;;11.82;63.51
28911;BME280;16028;42.642;23.310;2023-03-21T06:55:11;93784.56;;;11.72;66.08
28911;BME280;16028;42.642;23.310;2023-03-21T06:57:37;93788.94;;;11.72;66.81
28911;BME280;16028;42.642;23.310;2023-03-21T07:00:04;93780.97;;;11.81;64.76
28911;BME280;16028;42.642;23.310;2023-03-21T07:02:32;93790.44;;;11.82;65.74
28911;BME280;16028;42.642;23.310;2023-03-21T07:04:58;93792.25;;;11.98;64.78
28911;BME280;16028;42.642;23.310;2023-03-21T07:07:25;93793.91;;;12.15;62.98
28911;BME280;16028;42.642;23.310;2023-03-21T07:09:53;93791.31;;;12.15;64.21
28911;BME280;16028;42.642;23.310;2023-03-21T07:12:22;93791.78;;;12.18;64.74
28911;BME280;16028;42.642;23.310;2023-03-21T07:14:49;93786.06;;;12.23;65.24
28911;BME280;16028;42.642;23.310;2023-03-21T07:17:15;93792.41;;;12.45;63.47
28911;BME280;16028;42.642;23.310;2023-03-21T07:19:42;93801.72;;;12.55;61.66
28911;BME280;16028;42.642;23.310;2023-03-21T07:22:08;93802.84;;;12.69;60.63
28911;BME280;16028;42.642;23.310;2023-03-21T07:24:35;93802.34;;;12.73;60.30
28911;BME280;16028;42.642;23.310;2023-03-21T07:27:01;93789.63;;;12.70;60.08
28911;BME280;16028;42.642;23.310;2023-03-21T07:29:29;93795.19;;;12.59;60.14
28911;BME280;16028;42.642;23.310;2023-03-21T07:31:56;93801.41;;;12.66;58.31
28911;BME280;16028;42.642;23.310;2023-03-21T07:34:22;93801.56;;;12.57;59.01
28911;BME280;16028;42.642;23.310;2023-03-21T07:36:49;93793.56;;;12.58;59.02
28911;BME280;16028;42.642;23.310;2023-03-21T07:39:15;93797.13;;;12.73;58.76
28911;BME280;16028;42.642;23.310;2023-03-21T07:41:43;93790.28;;;12.64;60.72
28911;BME280;16028;42.642;23.310;2023-03-21T07:44:10;93794.69;;;12.72;60.41
28911;BME280;16028;42.642;23.310;2023-03-21T07:46:38;93789.91;;;12.92;58.21
28911;BME280;16028;42.642;23.310;2023-03-21T07:49:04;93796.75;;;13.01;58.08
28911;BME280;16028;42.642;23.310;2023-03-21T07:51:33;93798.53;;;13.08;56.29
28911;BME280;16028;42.642;23.310;2023-03-21T07:54:00;93805.06;;;13.12;56.54
28911;BME280;16028;42.642;23.310;2023-03-21T07:56:26;93803.56;;;13.02;58.77
28911;BME280;16028;42.642;23.310;2023-03-21T07:58:53;93801.78;;;13.18;56.91
28911;BME280;16028;42.642;23.310;2023-03-21T08:01:19;93795.00;;;13.40;53.48
28911;BME280;16028;42.642;23.310;2023-03-21T08:03:49;93799.63;;;13.30;55.39
28911;BME280;16028;42.642;23.310;2023-03-21T08:06:17;93797.72;;;13.16;57.77
28911;BME280;16028;42.642;23.310;2023-03-21T08:08:44;93805.53;;;13.16;58.35
28911;BME280;16028;42.642;23.310;2023-03-21T08:11:10;93796.41;;;13.20;57.39
28911;BME280;16028;42.642;23.310;2023-03-21T08:13:37;93795.56;;;13.19;57.66
28911;BME280;16028;42.642;23.310;2023-03-21T08:16:04;93800.53;;;13.45;54.61
28911;BME280;16028;42.642;23.310;2023-03-21T08:18:30;93794.63;;;13.51;55.50
28911;BME280;16028;42.642;23.310;2023-03-21T08:21:00;93793.31;;;13.55;54.83
28911;BME280;16028;42.642;23.310;2023-03-21T08:23:26;93793.22;;;13.71;52.09
28911;BME280;16028;42.642;23.310;2023-03-21T08:25:53;93786.38;;;13.70;53.67
28911;BME280;16028;42.642;23.310;2023-03-21T08:28:20;93784.34;;;13.81;52.91
28911;BME280;16028;42.642;23.310;2023-03-21T08:30:47;93783.47;;;13.65;53.65
28911;BME280;16028;42.642;23.310;2023-03-21T08:33:14;93782.34;;;13.60;54.43
28911;BME280;16028;42.642;23.310;2023-03-21T08:35:42;93791.88;;;13.75;52.36
28911;BME280;16028;42.642;23.310;2023-03-21T08:38:10;93785.41;;;13.63;53.93
28911;BME280;16028;42.642;23.310;2023-03-21T08:40:37;93788.69;;;13.88;52.66
28911;BME280;16028;42.642;23.310;2023-03-21T08:43:04;93787.13;;;13.79;52.73
28911;BME280;16028;42.642;23.310;2023-03-21T08:45:31;93787.47;;;13.76;53.82
28911;BME280;16028;42.642;23.310;2023-03-21T08:47:58;93792.19;;;13.81;54.21
28911;BME280;16028;42.642;23.310;2023-03-21T08:50:25;93790.22;;;13.83;52.87
28911;BME280;16028;42.642;23.310;2023-03-21T08:52:53;93789.59;;;14.03;50.59
28911;BME280;16028;42.642;23.310;2023-03-21T08:55:21;93789.06;;;14.08;50.86
28911;BME280;16028;42.642;23.310;2023-03-21T08:57:47;93789.41;;;14.05;51.85
28911;BME280;16028;42.642;23.310;2023-03-21T09:00:15;93777.50;;;14.25;51.49
28911;BME280;16028;42.642;23.310;2023-03-21T09:02:42;93784.34;;;14.34;49.02
28911;BME280;16028;42.642;23.310;2023-03-21T09:05:09;93782.41;;;14.28;50.03
28911;BME280;16028;42.642;23.310;2023-03-21T09:07:37;93781.78;;;14.26;51.02
28911;BME280;16028;42.642;23.310;2023-03-21T09:10:05;93777.50;;;14.25;52.66
28911;BME280;16028;42.642;23.310;2023-03-21T09:12:33;93775.88;;;14.24;52.98
28911;BME280;16028;42.642;23.310;2023-03-21T09:15:00;93773.72;;;14.36;50.68
28911;BME280;16028;42.642;23.310;2023-03-21T09:17:30;93772.91;;;14.27;50.76
28911;BME280;16028;42.642;23.310;2023-03-21T09:19:58;93769.91;;;14.38;52.02
28911;BME280;16028;42.642;23.310;2023-03-21T09:22:32;93758.97;;;14.57;48.86
28911;BME280;16028;42.642;23.310;2023-03-21T09:24:59;93755.25;;;14.52;50.43
28911;BME280;16028;42.642;23.310;2023-03-21T09:27:33;93748.28;;;14.59;49.04
28911;BME280;16028;42.642;23.310;2023-03-21T09:30:00;93757.31;;;14.56;50.58
28911;BME280;16028;42.642;23.310;2023-03-21T09:32:26;93755.16;;;14.60;53.05
28911;BME280;16028;42.642;23.310;2023-03-21T09:34:53;93757.94;;;14.58;51.28
28911;BME280;16028;42.642;23.310;2023-03-21T09:37:21;93748.09;;;14.46;51.26
28911;BME280;16028;42.642;23.310;2023-03-21T09:39:47;93738.63;;;14.59;50.80
28911;BME280;16028;42.642;23.310;2023-03-21T09:42:18;93726.56;;;14.73;47.98
28911;BME280;16028;42.642;23.310;2023-03-21T09:44:52;93732.06;;;14.78;47.94
28911;BME280;16028;42.642;23.310;2023-03-21T09:47:24;93728.47;;;14.79;50.21
28911;BME280;16028;42.642;23.310;2023-03-21T09:49:54;93728.09;;;15.11;46.15
28911;BME280;16028;42.642;23.310;2023-03-21T09:52:24;93727.00;;;15.20;46.21
28911;BME280;16028;42.642;23.310;2023-03-21T09:54:53;93729.19;;;15.02;47.70
28911;BME280;16028;42.642;23.310;2023-03-21T09:57:25;93723.31;;;15.15;47.66
28911;BME280;16028;42.642;23.310;2023-03-21T09:59:55;93719.22;;;15.27;46.93
28911;BME280;16028;42.642;23.310;2023-03-21T10:02:32;93719.47;;;15.32;46.93
28911;BME280;16028;42.642;23.310;2023-03-21T10:05:01;93718.53;;;15.18;47.96
28911;BME280;16028;42.642;23.310;2023-03-21T10:07:33;93716.69;;;15.19;49.09
28911;BME280;16028;42.642;23.310;2023-03-21T10:10:04;93712.63;;;15.31;46.46
28911;BME280;16028;42.642;23.310;2023-03-21T10:12:31;93698.50;;;15.32;46.95
28911;BME280;16028;42.642;23.310;2023-03-21T10:14:59;93698.31;;;15.63;44.30
28911;BME280;16028;42.642;23.310;2023-03-21T10:17:30;93692.25;;;15.62;45.73
28911;BME280;16028;42.642;23.310;2023-03-21T10:20:00;93693.06;;;15.84;45.25
28911;BME280;16028;42.642;23.310;2023-03-21T10:22:35;93695.31;;;15.87;45.12
28911;BME280;16028;42.642;23.310;2023-03-21T10:25:01;93685.09;;;15.92;44.77
28911;BME280;16028;42.642;23.310;2023-03-21T10:27:29;93686.09;;;15.91;45.72
28911;BME280;16028;42.642;23.310;2023-03-21T10:29:56;93688.88;;;15.89;45.55
28911;BME280;16028;42.642;23.310;2023-03-21T10:32:26;93690.50;;;15.91;46.99
28911;BME280;16028;42.642;23.310;2023-03-21T10:34:53;93685.34;;;15.97;44.49
28911;BME280;16028;42.642;23.310;2023-03-21T10:37:21;93699.06;;;15.99;43.58
28911;BME280;16028;42.642;23.310;2023-03-21T10:39:48;93699.75;;;16.08;43.87
28911;BME280;16028;42.642;23.310;2023-03-21T10:42:17;93702.69;;;16.19;41.81
28911;BME280;16028;42.642;23.310;2023-03-21T10:44:45;93703.44;;;16.13;41.58
28911;BME280;16028;42.642;23.310;2023-03-21T10:47:12;93701.63;;;16.14;45.22
28911;BME280;16028;42.642;23.310;2023-03-21T10:49:46;93690.94;;;16.15;44.68
28911;BME280;16028;42.642;23.310;2023-03-21T10:52:13;93689.13;;;16.16;43.55
28911;BME280;16028;42.642;23.310;2023-03-21T10:54:42;93688.31;;;16.36;42.05
28911;BME280;16028;42.642;23.310;2023-03-21T10:57:14;93685.72;;;16.43;41.37
28911;BME280;16028;42.642;23.310;2023-03-21T10:59:41;93676.44;;;16.47;41.60
28911;BME280;16028;42.642;23.310;2023-03-21T11:02:13;93679.66;;;16.42;41.57
28911;BME280;16028;42.642;23.310;2023-03-21T11:04:42;93673.34;;;16.37;42.89
28911;BME280;16028;42.642;23.310;2023-03-21T11:07:11;93677.75;;;16.30;41.94
28911;BME280;16028;42.642;23.310;2023-03-21T11:09:43;93669.00;;;16.23;41.66
28911;BME280;16028;42.642;23.310;2023-03-21T11:12:10;93676.75;;;16.10;44.28
28911;BME280;16028;42.642;23.310;2023-03-21T11:14:38;93671.81;;;16.21;43.51
28911;BME280;16028;42.642;23.310;2023-03-21T11:17:19;93674.03;;;16.24;42.03
28911;BME280;16028;42.642;23.310;2023-03-21T11:19:46;93668.06;;;16.30;44.88
28911;BME280;16028;42.642;23.310;2023-03-21T11:22:14;93666.53;;;16.42;42.67
28911;BME280;16028;42.642;23.310;2023-03-21T11:24:42;93666.75;;;16.48;42.92
28911;BME280;16028;42.642;23.310;2023-03-21T11:27:11;93655.16;;;16.63;41.59
28911;BME280;16028;42.642;23.310;2023-03-21T11:29:38;93647.72;;;16.67;41.00
28911;BME280;16028;42.642;23.310;2023-03-21T11:32:10;93647.72;;;16.67;40.62
28911;BME280;16028;42.642;23.310;2023-03-21T11:34:39;93635.97;;;16.63;43.02
28911;BME280;16028;42.642;23.310;2023-03-21T11:37:17;93639.47;;;16.70;40.95
28911;BME280;16028;42.642;23.310;2023-03-21T11:39:44;93634.84;;;16.78;41.25
28911;BME280;16028;42.642;23.310;2023-03-21T11:45:03;93633.31;;;16.56;42.69
28911;BME280;16028;42.642;23.310;2023-03-21T11:47:30;93633.44;;;16.76;40.63
28911;BME280;16028;42.642;23.310;2023-03-21T11:49:57;93627.13;;;16.70;42.59
28911;BME280;16028;42.642;23.310;2023-03-21T11:52:27;93624.66;;;16.56;42.79
28911;BME280;16028;42.642;23.310;2023-03-21T11:55:10;93629.97;;;16.75;39.21
28911;BME280;16028;42.642;23.310;2023-03-21T11:57:46;93627.31;;;16.62;41.48
28911;BME280;16028;42.642;23.310;2023-03-21T12:00:19;93625.38;;;16.77;40.48
28911;BME280;16028;42.642;23.310;2023-03-21T12:05:34;93612.69;;;16.87;40.45
28911;BME280;16028;42.642;23.310;2023-03-21T12:08:04;93616.91;;;16.88;41.16
28911;BME280;16028;42.642;23.310;2023-03-21T12:10:39;93614.47;;;16.80;40.33
28911;BME280;16028;42.642;23.310;2023-03-21T12:13:12;93608.19;;;16.75;41.95
28911;BME280;16028;42.642;23.310;2023-03-21T12:15:44;93605.16;;;16.78;40.21
28911;BME280;16028;42.642;23.310;2023-03-21T12:18:28;93594.22;;;16.74;40.78
28911;BME280;16028;42.642;23.310;2023-03-21T12:20:59;93604.78;;;16.81;40.84
28911;BME280;16028;42.642;23.310;2023-03-21T12:26:19;93601.22;;;17.02;39.63
28911;BME280;16028;42.642;23.310;2023-03-21T12:28:56;93593.28;;;16.95;39.29
28911;BME280;16028;42.642;23.310;2023-03-21T12:31:25;93589.91;;;17.08;38.79
28911;BME280;16028;42.642;23.310;2023-03-21T12:34:02;93581.88;;;17.16;38.77
28911;BME280;16028;42.642;23.310;2023-03-21T12:36:38;93585.94;;;17.25;38.47
28911;BME280;16028;42.642;23.310;2023-03-21T12:39:10;93584.25;;;17.11;39.71
28911;BME280;16028;42.642;23.310;2023-03-21T12:41:41;93580.03;;;17.10;38.66
28911;BME280;16028;42.642;23.310;2023-03-21T12:44:09;93582.41;;;16.98;40.14
28911;BME280;16028;42.642;23.310;2023-03-21T12:46:38;93587.84;;;16.90;39.78
28911;BME280;16028;42.642;23.310;2023-03-21T12:49:08;93579.50;;;16.80;40.67
28911;BME280;16028;42.642;23.310;2023-03-21T12:51:40;93573.28;;;16.87;38.56
28911;BME280;16028;42.642;23.310;2023-03-21T12:54:08;93576.16;;;16.99;39.35
28911;BME280;16028;42.642;23.310;2023-03-21T12:56:40;93561.75;;;16.88;41.60
28911;BME280;16028;42.642;23.310;2023-03-21T12:59:16;93557.94;;;16.98;40.69
28911;BME280;16028;42.642;23.310;2023-03-21T13:01:43;93562.03;;;17.07;40.13
28911;BME280;16028;42.642;23.310;2023-03-21T13:04:29;93558.22;;;17.16;39.63
28911;BME280;16028;42.642;23.310;2023-03-21T13:06:57;93557.97;;;17.11;39.97
28911;BME280;16028;42.642;23.310;2023-03-21T13:09:27;93560.00;;;17.09;40.03
28911;BME280;16028;42.642;23.310;2023-03-21T13:11:55;93560.22;;;17.14;39.86
28911;BME280;16028;42.642;23.310;2023-03-21T13:14:24;93552.91;;;17.03;41.94